M I D A S
Marine Information and Data Acquisition System
Tripno 1998 of the Zeeleeuw from 2010-11-29 08:01:01 to 2010-11-29 15:53:27
Back to CruiseResearch ActivitiesStationsMapUnderway DataData graphs

EquipmentUnitsComment
TimeDGPSUTC
LatitudeDGPSDM.mWGS84
LongitudeDGPSDM.mWGS84
TemperatureSBE03/SBE38deg celciusITS90
ConductivitySBE21S/mITS90
SalinitySBE21 Practical Salinity Units
ChlorophylAChelsea fluorimeterg/lCalibrated in Aceton
Missing or incorrect values are displayed as -999
Sea surface data collected by the RV Zeeleeuw from 2010-11-29 07:42:19 to 2010-11-29 16:04:58
Time Latitude Longitude Temperature Conductivity Salinity ChlorophylA
2010-11-29 07:43:25 51°13.662 2°55.96 7.559 0.068807 0.563159 -0.687152
2010-11-29 07:44:24 51°13.662 2°55.959 7.5698 0.068807 0.563174 -0.687152
2010-11-29 07:45:25 51°13.662 2°55.958 7.5834 0.068807 0.563189 -0.652328
2010-11-29 07:46:25 51°13.662 2°55.959 7.59 0.068807 0.563204 -0.652328
2010-11-29 07:47:25 51°13.662 2°55.96 7.6026 0.068807 0.563234 -0.652328
2010-11-29 07:48:25 51°13.662 2°55.959 7.6201 0.068807 0.563234 -0.652328
2010-11-29 07:49:24 51°13.663 2°55.96 7.6247 0.068807 0.563264 -0.652328
2010-11-29 07:50:24 51°13.662 2°55.96 7.6356 0.068807 0.563294 -0.652328
2010-11-29 07:51:24 51°13.662 2°55.96 7.6435 0.068807 0.563309 -0.652328
2010-11-29 07:52:25 51°13.661 2°55.96 7.6657 0.068703 0.562436 -0.687152
2010-11-29 07:53:24 51°13.661 2°55.959 7.6779 0.068703 0.562451 -0.687152
2010-11-29 07:54:24 51°13.662 2°55.96 7.6923 0.068703 0.562481 -0.652328
2010-11-29 07:55:24 51°13.664 2°55.951 7.6923 0.068807 0.563385 -0.687152
2010-11-29 07:56:28 51°13.679 2°55.878 7.696 0.068703 0.562511 -0.652328
2010-11-29 07:57:28 51°13.689 2°55.777 7.7091 0.068703 0.562511 -0.652328
2010-11-29 07:58:27 51°13.693 2°55.73 7.0802 0.068807 0.562364 -0.513031
2010-11-29 07:59:25 51°13.7 2°55.732 6.801 2.630055 25.224037 -0.060319
2010-11-29 08:00:25 51°13.705 2°55.72 6.8738 2.742072 26.523938 -0.025495
2010-11-29 08:01:24 51°13.776 2°55.667 6.8208 2.83263 27.463053 -0.060319
2010-11-29 08:01:44 51°13.81 2°55.644 6.7856 2.870753 27.866591 0.009329
2010-11-29 08:03:25 51°13.81 2°55.644 6.7572 2.803987 27.201675 -0.060319
2010-11-29 08:04:24 51°14.153 2°55.382 6.8008 2.813991 27.310638 -0.060319
2010-11-29 08:05:24 51°14.297 2°55.249 6.9174 2.844741 27.621872 -0.129967
2010-11-29 08:06:24 51°14.441 2°55.103 7.0462 3.003468 29.201106 -0.095143
2010-11-29 08:07:24 51°14.587 2°54.942 7.028 3.123677 30.424879 -0.095143
2010-11-29 08:08:25 51°14.747 2°54.754 7.0712 3.155603 30.75696 -0.095143
2010-11-29 08:09:24 51°14.92 2°54.562 7.3225 3.208185 31.300863 -0.164791
2010-11-29 08:10:25 51°15.107 2°54.365 7.3426 3.333493 32.421713 -0.269263
2010-11-29 08:11:24 51°15.283 2°54.165 7.248 3.349198 32.569709 -0.304087
2010-11-29 08:12:24 51°15.46 2°53.96 7.1661 3.325378 32.429969 -0.269263
2010-11-29 08:13:24 51°15.639 2°53.756 7.181 3.309041 32.26205 -0.234439
2010-11-29 08:14:24 51°15.82 2°53.552 7.2608 3.303245 32.219125 -0.234439
2010-11-29 08:15:25 51°16.012 2°53.363 7.2983 3.329593 32.427139 -0.269263
2010-11-29 08:16:24 51°16.206 2°53.199 7.3554 3.353098 32.637255 -0.269263
2010-11-29 08:17:25 51°16.403 2°53.03 7.351 3.359527 32.672395 -0.269263
2010-11-29 08:18:24 51°16.595 2°52.867 7.3478 3.35763 32.653518 -0.269263
2010-11-29 08:19:25 51°16.795 2°52.697 7.3617 3.355627 32.632708 -0.304087
2010-11-29 08:20:24 51°16.991 2°52.532 7.3886 3.368487 32.753107 -0.304087
2010-11-29 08:21:24 51°17.187 2°52.364 7.429 3.382084 32.877411 -0.338911
2010-11-29 08:22:24 51°17.384 2°52.19 7.5002 3.401901 33.046217 -0.304087
2010-11-29 08:23:24 51°17.57 2°51.994 7.5781 3.427621 33.254973 -0.304087
2010-11-29 08:24:24 51°17.759 2°51.804 7.6604 3.445541 33.37118 -0.269263
2010-11-29 08:25:24 51°17.95 2°51.613 7.753 3.452815 33.373501 -0.234439
2010-11-29 08:26:24 51°18.138 2°51.418 7.8543 3.479169 33.565018 -0.304087
2010-11-29 08:27:24 51°18.325 2°51.224 7.9133 3.495825 33.652881 -0.269263
2010-11-29 08:28:24 51°18.512 2°51.029 7.9313 3.503416 33.684769 -0.234439
2010-11-29 08:29:24 51°18.699 2°50.833 7.9329 3.508054 33.718984 -0.234439
2010-11-29 08:30:24 51°18.886 2°50.636 7.9047 3.513537 33.774319 -0.269263
2010-11-29 08:31:24 51°19.071 2°50.441 7.6686 3.501203 33.731461 -0.234439
2010-11-29 08:32:24 51°19.255 2°50.242 7.6072 3.462724 33.483948 -0.269263
2010-11-29 08:33:25 51°19.44 2°50.037 7.6198 3.436264 33.248883 -0.234439
2010-11-29 08:34:24 51°19.62 2°49.84 7.6695 3.431099 33.172529 -0.199615
2010-11-29 08:35:24 51°19.8 2°49.638 7.7461 3.432574 33.133919 -0.164791
2010-11-29 08:36:24 51°19.99 2°49.458 7.7707 3.432889 33.083037 -0.304087
2010-11-29 08:37:24 51°20.199 2°49.337 7.8085 3.417287 32.89002 -0.269263
2010-11-29 08:38:24 51°20.411 2°49.236 7.9289 3.428356 32.956768 -0.269263
2010-11-29 08:39:24 51°20.63 2°49.286 7.9811 3.433731 32.92401 -0.269263
2010-11-29 08:40:24 51°20.844 2°49.399 7.9085 3.445221 32.999742 -0.234439
2010-11-29 08:41:24 51°21.055 2°49.516 7.8456 3.426352 32.870658 -0.269263
2010-11-29 08:42:24 51°21.27 2°49.632 7.7881 3.417076 32.825381 -0.234439
2010-11-29 08:43:24 51°21.494 2°49.691 7.7702 3.423718 32.943672 -0.269263
2010-11-29 08:44:24 51°21.721 2°49.669 7.8576 3.420344 32.922684 -0.304087
2010-11-29 08:45:24 51°21.924 2°49.523 7.9742 3.437843 33.007307 -0.269263
2010-11-29 08:46:24 51°22.066 2°49.257 8.1428 3.453971 33.09678 -0.269263
2010-11-29 08:47:24 51°22.205 2°48.985 8.2247 3.475475 33.148995 -0.304087
2010-11-29 08:48:24 51°22.349 2°48.722 8.2125 3.496665 33.319735 -0.234439
2010-11-29 08:49:25 51°22.495 2°48.455 8.1626 3.486755 33.236927 -0.269263
2010-11-29 08:50:24 51°22.636 2°48.191 8.1768 3.489813 33.289074 -0.234439
2010-11-29 08:51:25 51°22.794 2°47.931 8.2025 3.491078 33.28824 -0.234439
2010-11-29 08:52:24 51°22.941 2°47.673 8.1864 3.499512 33.364922 -0.234439
2010-11-29 08:53:25 51°23.087 2°47.401 8.1889 3.495084 33.335436 -0.234439
2010-11-29 08:54:24 51°23.225 2°47.132 8.1955 3.498879 33.366938 -0.269263
2010-11-29 08:55:24 51°23.367 2°46.858 8.2731 3.498879 33.351885 -0.269263
2010-11-29 08:56:25 51°23.511 2°46.578 8.7133 3.508894 33.366099 -0.234439
2010-11-29 08:57:24 51°23.643 2°46.3 8.9044 3.567299 33.561633 -0.199615
2010-11-29 08:58:25 51°23.779 2°46.011 8.9397 3.592497 33.683051 -0.199615
2010-11-29 08:59:24 51°23.906 2°45.728 9.0522 3.598507 33.690138 -0.199615
2010-11-29 09:00:25 51°24.042 2°45.439 9.1316 3.626554 33.88334 -0.199615
2010-11-29 09:01:24 51°24.167 2°45.156 9.1725 3.637941 33.940528 -0.199615
2010-11-29 09:02:25 51°24.282 2°44.85 9.2124 3.645639 33.976537 -0.199615
2010-11-29 09:03:24 51°24.365 2°44.606 9.2444 3.651016 33.996274 -0.199615
2010-11-29 09:04:24 51°24.431 2°44.417 9.2709 3.656605 34.019735 -0.164791
2010-11-29 09:05:25 51°24.476 2°44.232 9.2903 3.661982 34.055065 -0.199615
2010-11-29 09:06:24 51°24.493 2°44.053 9.3098 3.666306 34.077892 -0.164791
2010-11-29 09:07:25 51°24.533 2°43.905 9.3251 3.669575 34.096054 -0.199615
2010-11-29 09:08:25 51°24.575 2°43.805 9.3411 3.672105 34.101878 -0.199615
2010-11-29 09:09:25 51°24.613 2°43.737 9.3543 3.675058 34.115968 -0.199615
2010-11-29 09:10:24 51°24.648 2°43.698 9.362 3.676428 34.119183 -0.199615
2010-11-29 09:11:25 51°24.693 2°43.694 9.371 3.678116 34.12801 -0.199615
2010-11-29 09:12:26 51°24.692 2°43.683 9.3798 3.679276 34.134517 -0.164791
2010-11-29 09:13:28 51°24.656 2°43.679 9.3862 3.680752 34.139597 -0.199615
2010-11-29 09:14:28 51°24.63 2°43.697 9.3889 3.679697 34.122457 -0.164791
2010-11-29 09:15:26 51°24.663 2°43.676 9.3794 3.681068 34.135046 -0.199615
2010-11-29 09:16:24 51°24.708 2°43.696 9.377 3.679908 34.130105 -0.164791
2010-11-29 09:17:24 51°24.724 2°43.728 9.3886 3.680224 34.13259 -0.199615
2010-11-29 09:18:24 51°24.73 2°43.727 9.3936 3.680646 34.129129 -0.199615
2010-11-29 09:19:25 51°24.73 2°43.725 9.3988 3.681912 34.13594 -0.164791
2010-11-29 09:20:24 51°24.715 2°43.742 9.3985 3.68265 34.142777 -0.164791
2010-11-29 09:21:24 51°24.691 2°43.746 9.3954 3.68265 34.14434 -0.199615
2010-11-29 09:22:24 51°24.684 2°43.739 9.3902 3.682439 34.139819 -0.199615
2010-11-29 09:23:25 51°24.681 2°43.733 9.3831 3.677272 34.088054 -0.199615
2010-11-29 09:24:24 51°24.679 2°43.727 9.3881 3.679592 34.117462 -0.199615
2010-11-29 09:25:25 51°24.675 2°43.722 9.3713 3.679486 34.117936 -0.164791
2010-11-29 09:26:24 51°24.672 2°43.717 9.3621 3.678326 34.109867 -0.199615
2010-11-29 09:27:25 51°24.67 2°43.708 9.3643 3.677483 34.111313 -0.199615
2010-11-29 09:28:24 51°24.67 2°43.699 9.367 3.677799 34.11458 -0.199615
2010-11-29 09:29:24 51°24.672 2°43.687 9.3634 3.678537 34.123766 -0.199615
2010-11-29 09:30:24 51°24.674 2°43.672 9.3642 3.678326 34.121588 -0.164791
2010-11-29 09:31:24 51°24.66 2°43.69 9.3612 3.67801 34.117539 -0.164791
2010-11-29 09:32:24 51°24.666 2°43.756 9.3578 3.677166 34.107265 -0.164791
2010-11-29 09:33:24 51°24.677 2°43.766 9.3603 3.677694 34.113491 -0.164791
2010-11-29 09:34:25 51°24.675 2°43.75 9.3679 3.677377 34.111006 -0.164791
2010-11-29 09:35:24 51°24.674 2°43.733 9.3514 3.677588 34.108496 -0.199615
2010-11-29 09:36:25 51°24.672 2°43.72 9.3504 3.676217 34.109967 -0.164791
2010-11-29 09:37:24 51°24.668 2°43.71 9.3513 3.676217 34.106841 -0.199615
2010-11-29 09:38:24 51°24.665 2°43.702 9.3464 3.676112 34.105752 -0.164791
2010-11-29 09:39:24 51°24.664 2°43.693 9.349 3.675585 34.102651 -0.199615
2010-11-29 09:40:24 51°24.663 2°43.682 9.3507 3.676217 34.10606 -0.164791
2010-11-29 09:41:25 51°24.664 2°43.671 9.3495 3.675268 34.096258 -0.199615
2010-11-29 09:42:24 51°24.665 2°43.659 9.3484 3.675901 34.105137 -0.199615
2010-11-29 09:43:25 51°24.654 2°43.668 9.3443 3.675901 34.105137 -0.164791
2010-11-29 09:44:24 51°24.646 2°43.689 9.3356 3.674847 34.098934 -0.164791
2010-11-29 09:45:25 51°24.643 2°43.707 9.3382 3.674319 34.098176 -0.164791
2010-11-29 09:46:25 51°24.644 2°43.742 9.3366 3.674003 34.094908 -0.129967
2010-11-29 09:47:24 51°24.648 2°43.755 9.3314 3.671578 34.069854 -0.164791
2010-11-29 09:48:24 51°24.654 2°43.715 9.3229 3.672949 34.089484 -0.199615
2010-11-29 09:49:26 51°24.649 2°43.716 9.3339 3.666727 34.028334 -0.129967
2010-11-29 09:50:25 51°24.679 2°43.672 9.3184 3.670101 34.063194 -0.164791
2010-11-29 09:51:24 51°24.709 2°43.659 9.3316 3.667043 34.037065 -0.199615
2010-11-29 09:52:25 51°24.72 2°43.646 9.3331 3.667781 34.031425 -0.129967
2010-11-29 09:53:24 51°24.745 2°43.694 9.3549 3.674952 34.099241 -0.199615
2010-11-29 09:54:25 51°24.718 2°43.747 9.3384 3.676639 34.099478 -0.199615
2010-11-29 09:55:24 51°24.69 2°43.768 9.335 3.674319 34.101303 -0.129967
2010-11-29 09:56:24 51°24.687 2°43.758 9.3415 3.674214 34.096305 -0.164791
2010-11-29 09:57:25 51°24.683 2°43.747 9.3295 3.671894 34.068437 -0.199615
2010-11-29 09:58:25 51°24.679 2°43.734 9.3164 3.671578 34.079228 -0.199615
2010-11-29 09:59:24 51°24.677 2°43.721 9.3221 3.664091 34.006562 -0.199615
2010-11-29 10:00:24 51°24.673 2°43.711 9.2824 3.667149 34.033472 -0.199615
2010-11-29 10:01:25 51°24.667 2°43.703 9.2565 3.666727 34.069736 -0.199615
2010-11-29 10:02:24 51°24.663 2°43.695 9.2547 3.662826 34.048147 -0.199615
2010-11-29 10:03:25 51°24.659 2°43.683 9.2627 3.656921 33.992523 -0.164791
2010-11-29 10:04:24 51°24.653 2°43.673 9.2402 3.659979 34.019473 -0.199615
2010-11-29 10:05:24 51°24.643 2°43.687 9.2392 3.656815 34.007059 -0.199615
2010-11-29 10:06:24 51°24.648 2°43.734 9.2389 3.652281 33.960133 -0.199615
2010-11-29 10:07:25 51°24.671 2°43.757 9.2193 3.652808 33.961685 -0.164791
2010-11-29 10:08:25 51°24.677 2°43.748 9.2273 3.649434 33.943156 -0.164791
2010-11-29 10:09:25 51°24.674 2°43.733 9.2231 3.650805 33.949539 -0.164791
2010-11-29 10:10:25 51°24.678 2°43.712 9.232 3.658714 34.038443 -0.164791
2010-11-29 10:11:24 51°24.676 2°43.692 9.2337 3.659663 34.038877 -0.234439
2010-11-29 10:12:24 51°24.674 2°43.676 9.2421 3.66019 34.040422 -0.199615
2010-11-29 10:13:24 51°24.671 2°43.659 9.2482 3.658081 34.015465 -0.164791
2010-11-29 10:14:25 51°24.667 2°43.641 9.2735 3.662615 34.051441 -0.164791
2010-11-29 10:15:24 51°24.661 2°43.626 9.273 3.665251 34.056813 -0.199615
2010-11-29 10:16:24 51°24.657 2°43.611 9.2527 3.663775 34.044672 -0.164791
2010-11-29 10:17:24 51°24.654 2°43.593 9.2404 3.663459 34.058605 -0.199615
2010-11-29 10:18:25 51°24.679 2°43.545 9.2201 3.659663 34.031836 -0.199615
2010-11-29 10:19:24 51°24.741 2°43.525 9.2558 3.658608 34.028743 -0.164791
2010-11-29 10:20:24 51°24.853 2°43.597 9.3331 3.664408 34.055126 -0.164791
2010-11-29 10:21:25 51°24.996 2°43.758 9.3678 3.672421 34.074663 -0.164791
2010-11-29 10:22:24 51°25.145 2°43.96 9.4067 3.68033 34.118052 -0.164791
2010-11-29 10:23:25 51°25.312 2°44.179 9.454 3.685286 34.131708 -0.164791
2010-11-29 10:24:25 51°25.476 2°44.396 9.4948 3.693616 34.174653 -0.199615
2010-11-29 10:25:24 51°25.635 2°44.601 9.5086 3.69699 34.178208 -0.164791
2010-11-29 10:26:25 51°25.8 2°44.821 9.5304 3.699732 34.190057 -0.164791
2010-11-29 10:27:24 51°25.955 2°45.038 9.5354 3.701946 34.19336 -0.164791
2010-11-29 10:28:25 51°26.117 2°45.262 9.5485 3.705637 34.224307 -0.164791
2010-11-29 10:29:24 51°26.272 2°45.48 9.5527 3.704372 34.201945 -0.164791
2010-11-29 10:30:24 51°26.432 2°45.703 9.5678 3.705532 34.206861 -0.164791
2010-11-29 10:31:24 51°26.59 2°45.926 9.5764 3.711754 34.25835 -0.129967
2010-11-29 10:32:25 51°26.752 2°46.151 9.5763 3.713335 34.266032 -0.164791
2010-11-29 10:33:24 51°26.909 2°46.369 9.5756 3.71323 34.268066 -0.199615
2010-11-29 10:34:25 51°27.071 2°46.594 9.5839 3.714179 34.272363 -0.164791
2010-11-29 10:35:25 51°27.23 2°46.812 9.5929 3.716921 34.29274 -0.199615
2010-11-29 10:36:24 51°27.386 2°47.031 9.6001 3.717975 34.294996 -0.164791
2010-11-29 10:37:25 51°27.547 2°47.257 9.5975 3.72019 34.308388 -0.129967
2010-11-29 10:38:24 51°27.705 2°47.475 9.5988 3.718397 34.30323 -0.164791
2010-11-29 10:39:25 51°27.866 2°47.699 9.603 3.719874 34.317619 -0.164791
2010-11-29 10:40:24 51°28.02 2°47.915 9.6092 3.721034 34.324075 -0.164791
2010-11-29 10:41:25 51°28.183 2°48.14 9.6213 3.721772 34.326196 -0.164791
2010-11-29 10:42:25 51°28.341 2°48.359 9.627 3.723881 34.336936 -0.199615
2010-11-29 10:43:24 51°28.495 2°48.573 9.6408 3.724935 34.341524 -0.199615
2010-11-29 10:44:25 51°28.655 2°48.793 9.6494 3.726306 34.343119 -0.164791
2010-11-29 10:45:24 51°28.812 2°49.005 9.6207 3.726517 34.339825 -0.164791
2010-11-29 10:46:25 51°28.977 2°49.224 9.5841 3.722299 34.329272 -0.199615
2010-11-29 10:47:24 51°29.136 2°49.436 9.5383 3.71555 34.295813 -0.199615
2010-11-29 10:48:25 51°29.3 2°49.659 9.5173 3.708907 34.263393 -0.164791
2010-11-29 10:49:25 51°29.461 2°49.88 9.4844 3.705532 34.252089 -0.199615
2010-11-29 10:50:24 51°29.622 2°50.097 9.4581 3.700681 34.230257 -0.164791
2010-11-29 10:51:24 51°29.783 2°50.322 9.438 3.696463 34.208673 -0.164791
2010-11-29 10:52:25 51°29.947 2°50.553 9.4033 3.692456 34.191588 -0.164791
2010-11-29 10:53:25 51°30.109 2°50.781 9.3553 3.686657 34.168499 -0.164791
2010-11-29 10:54:24 51°30.267 2°51.001 9.2947 3.679065 34.133121 -0.199615
2010-11-29 10:55:24 51°30.428 2°51.226 9.2566 3.670207 34.097901 -0.199615
2010-11-29 10:56:24 51°30.588 2°51.452 9.2421 3.664302 34.067335 -0.164791
2010-11-29 10:57:24 51°30.75 2°51.678 9.1973 3.661033 34.049938 -0.199615
2010-11-29 10:58:24 51°30.911 2°51.909 9.1481 3.653336 34.010137 -0.164791
2010-11-29 10:59:25 51°31.043 2°52.152 9.0994 3.64469 33.965911 -0.199615
2010-11-29 11:00:25 51°31.122 2°52.277 9.0481 3.635411 33.918171 -0.199615
2010-11-29 11:01:24 51°31.175 2°52.366 9.0602 3.627714 33.881293 -0.199615
2010-11-29 11:02:24 51°31.223 2°52.43 9.0413 3.628873 33.88473 -0.199615
2010-11-29 11:03:25 51°31.245 2°52.465 9.0305 3.626448 33.870494 -0.234439
2010-11-29 11:04:25 51°31.245 2°52.448 9.2029 3.625078 33.863295 -0.269263
2010-11-29 11:05:24 51°31.245 2°52.428 9.366 3.655655 33.988022 -0.199615
2010-11-29 11:06:25 51°31.243 2°52.41 9.3799 3.673581 34.071808 -0.199615
2010-11-29 11:07:24 51°31.241 2°52.403 9.316 3.676428 34.081689 -0.234439
2010-11-29 11:08:24 51°31.241 2°52.408 9.2394 3.666727 34.041602 -0.234439
2010-11-29 11:09:25 51°31.241 2°52.409 9.1591 3.653757 33.990256 -0.199615
2010-11-29 11:10:25 51°31.24 2°52.404 9.1254 3.64374 33.942769 -0.234439
2010-11-29 11:11:24 51°31.241 2°52.405 9.07 3.636781 33.91283 -0.199615
2010-11-29 11:12:24 51°31.241 2°52.405 9.0277 3.628768 33.878936 -0.234439
2010-11-29 11:13:25 51°31.24 2°52.404 9.0174 3.623812 33.857975 -0.234439
2010-11-29 11:14:24 51°31.24 2°52.404 9.0158 3.622125 33.849833 -0.199615
2010-11-29 11:15:24 51°31.241 2°52.405 8.9955 3.621282 33.846545 -0.234439
2010-11-29 11:16:24 51°31.241 2°52.404 9.0014 3.619489 33.841219 -0.199615
2010-11-29 11:17:25 51°31.239 2°52.404 8.9914 3.619595 33.839182 -0.234439
2010-11-29 11:18:25 51°31.238 2°52.407 8.9963 3.61833 33.835421 -0.199615
2010-11-29 11:19:24 51°31.236 2°52.404 8.9893 3.618857 33.836205 -0.234439
2010-11-29 11:20:25 51°31.234 2°52.406 8.9919 3.61833 33.835421 -0.199615
2010-11-29 11:21:25 51°31.234 2°52.41 8.9846 3.618013 33.834481 -0.199615
2010-11-29 11:22:24 51°31.232 2°52.405 8.977 3.617064 33.829309 -0.199615
2010-11-29 11:23:24 51°31.232 2°52.407 8.9783 3.616643 33.828838 -0.234439
2010-11-29 11:24:25 51°31.234 2°52.409 8.9748 3.616432 33.826643 -0.199615
2010-11-29 11:25:24 51°31.236 2°52.408 8.9732 3.616432 33.829778 -0.199615
2010-11-29 11:26:24 51°31.235 2°52.404 8.9775 3.616537 33.830091 -0.234439
2010-11-29 11:27:25 51°31.234 2°52.406 8.9906 3.617064 33.832443 -0.199615
2010-11-29 11:28:25 51°31.236 2°52.41 8.9933 3.61833 33.835421 -0.234439
2010-11-29 11:29:24 51°31.235 2°52.408 8.9935 3.618751 33.835108 -0.199615
2010-11-29 11:30:24 51°31.232 2°52.404 8.9857 3.618857 33.838556 -0.234439
2010-11-29 11:31:25 51°31.233 2°52.409 8.9818 3.618119 33.835578 -0.199615
2010-11-29 11:32:24 51°31.233 2°52.411 8.9777 3.616748 33.829151 -0.199615
2010-11-29 11:33:24 51°31.232 2°52.409 8.9825 3.616959 33.831346 -0.199615
2010-11-29 11:34:24 51°31.232 2°52.405 8.9751 3.616748 33.829935 -0.199615
2010-11-29 11:35:25 51°31.234 2°52.409 8.9689 3.616115 33.826486 -0.199615
2010-11-29 11:36:24 51°31.234 2°52.411 8.9935 3.61601 33.823038 -0.199615
2010-11-29 11:37:24 51°31.235 2°52.409 9.0173 3.620227 33.841846 -0.234439
2010-11-29 11:38:25 51°31.233 2°52.405 9.0096 3.622231 33.850146 -0.234439
2010-11-29 11:39:24 51°31.23 2°52.407 8.9841 3.620333 33.841376 -0.199615
2010-11-29 11:40:24 51°31.231 2°52.413 8.9708 3.616537 33.82539 -0.234439
2010-11-29 11:41:24 51°31.234 2°52.413 8.9938 3.615904 33.821157 -0.164791
2010-11-29 11:42:25 51°31.234 2°52.409 8.9846 3.61854 33.832915 -0.199615
2010-11-29 11:43:25 51°31.235 2°52.407 8.9958 3.617591 33.829309 -0.199615
2010-11-29 11:44:25 51°31.233 2°52.409 9.1169 3.621387 33.842159 -0.199615
2010-11-29 11:45:24 51°31.231 2°52.411 9.2166 3.640999 33.920603 -0.199615
2010-11-29 11:46:24 51°31.231 2°52.412 9.1831 3.651438 33.971707 -0.199615
2010-11-29 11:47:25 51°31.23 2°52.41 9.1231 3.646271 33.95336 -0.164791
2010-11-29 11:48:24 51°31.229 2°52.409 9.0461 3.636043 33.910648 -0.199615
2010-11-29 11:49:24 51°31.228 2°52.409 9.0159 3.626026 33.864545 -0.199615
2010-11-29 11:50:24 51°31.229 2°52.411 9.038 3.623496 33.851554 -0.234439
2010-11-29 11:51:24 51°31.229 2°52.412 9.0937 3.627608 33.866888 -0.199615
2010-11-29 11:52:24 51°31.228 2°52.407 9.0541 3.632564 33.888616 -0.234439
2010-11-29 11:53:24 51°31.23 2°52.412 9.0155 3.626659 33.867987 -0.199615
2010-11-29 11:54:24 51°31.232 2°52.412 8.9741 3.620755 33.840279 -0.199615
2010-11-29 11:55:24 51°31.228 2°52.41 8.9592 3.615799 33.819277 -0.234439
2010-11-29 11:56:24 51°31.228 2°52.41 8.9601 3.61369 33.809865 -0.199615
2010-11-29 11:57:24 51°31.229 2°52.413 8.9352 3.612847 33.802652 -0.234439
2010-11-29 11:58:24 51°31.227 2°52.41 8.9341 3.611581 33.801233 -0.199615
2010-11-29 11:59:24 51°31.227 2°52.413 8.9097 3.611476 33.804053 -0.199615
2010-11-29 12:00:24 51°31.227 2°52.416 8.9092 3.607048 33.780659 -0.234439
2010-11-29 12:01:24 51°31.224 2°52.415 8.8963 3.607048 33.777524 -0.234439
2010-11-29 12:02:24 51°31.224 2°52.415 8.9195 3.605572 33.77155 -0.199615
2010-11-29 12:03:24 51°31.225 2°52.417 8.9535 3.608418 33.783182 -0.164791
2010-11-29 12:04:24 51°31.224 2°52.415 9.1358 3.614217 33.804386 -0.199615
2010-11-29 12:05:24 51°31.223 2°52.414 9.2019 3.6352 33.891728 -0.164791
2010-11-29 12:06:24 51°31.225 2°52.414 9.0087 3.645006 33.939466 -0.164791
2010-11-29 12:07:24 51°31.224 2°52.412 9.211 3.626448 33.855622 -0.199615
2010-11-29 12:08:24 51°31.224 2°52.414 9.1301 3.650488 33.954852 -0.199615
2010-11-29 12:09:24 51°31.222 2°52.415 8.9536 3.634356 33.898616 -0.164791
2010-11-29 12:10:24 51°31.224 2°52.417 8.9462 3.615061 33.813163 -0.164791
2010-11-29 12:11:24 51°31.224 2°52.416 9.0123 3.612952 33.8014 -0.164791
2010-11-29 12:12:24 51°31.224 2°52.414 9.2246 3.628662 33.854373 -0.164791
2010-11-29 12:13:24 51°31.224 2°52.413 9.0775 3.651121 33.953593 -0.199615
2010-11-29 12:14:24 51°31.224 2°52.415 9.1111 3.636465 33.898599 -0.199615
2010-11-29 12:15:24 51°31.224 2°52.417 9.0446 3.634989 33.895013 -0.199615
2010-11-29 12:16:24 51°31.222 2°52.413 9.1391 3.631087 33.871729 -0.164791
2010-11-29 12:17:24 51°31.222 2°52.415 9.2085 3.637308 33.901095 -0.199615
2010-11-29 12:18:24 51°31.223 2°52.417 8.9743 3.643424 33.937144 -0.199615
2010-11-29 12:19:24 51°31.222 2°52.416 8.9601 3.619595 33.832134 -0.199615
2010-11-29 12:20:24 51°31.221 2°52.419 8.9532 3.61717 33.817873 -0.199615
2010-11-29 12:21:24 51°31.222 2°52.422 9.055 3.613796 33.810179 -0.164791
2010-11-29 12:22:24 51°31.22 2°52.42 9.1768 3.627819 33.859689 -0.199615
2010-11-29 12:23:24 51°31.221 2°52.418 9.0888 3.643529 33.923389 -0.164791
2010-11-29 12:24:24 51°31.223 2°52.419 9.0311 3.631615 33.884241 -0.234439
2010-11-29 12:25:24 51°31.222 2°52.418 8.9804 3.632774 33.879855 -0.164791
2010-11-29 12:26:24 51°31.221 2°52.417 8.98 3.618329 33.833071 -0.199615
2010-11-29 12:27:24 51°31.222 2°52.419 9.1928 3.622547 33.837778 -0.164791
2010-11-29 12:28:24 51°31.219 2°52.419 9.0982 3.653652 33.961048 -0.199615
2010-11-29 12:29:24 51°31.219 2°52.421 9.1761 3.631931 33.88596 -0.164791
2010-11-29 12:30:24 51°31.22 2°52.424 9.2376 3.649434 33.939254 -0.199615
2010-11-29 12:31:24 51°31.224 2°52.429 9.0517 3.649645 33.948462 -0.164791
2010-11-29 12:32:24 51°31.234 2°52.443 8.9506 3.62571 33.859692 -0.199615
2010-11-29 12:33:24 51°31.24 2°52.455 8.9776 3.612636 33.803591 -0.199615
2010-11-29 12:34:24 51°31.237 2°52.457 8.9884 3.616959 33.810201 -0.199615
2010-11-29 12:35:24 51°31.228 2°52.452 8.9871 3.620122 33.829004 -0.199615
2010-11-29 12:36:24 51°31.227 2°52.465 8.9015 3.61854 33.823517 -0.199615
2010-11-29 12:37:24 51°31.271 2°52.566 8.9834 3.609367 33.789147 -0.234439
2010-11-29 12:38:24 51°31.362 2°52.775 9.1055 3.618962 33.817728 -0.164791
2010-11-29 12:39:24 51°31.475 2°53.034 8.9682 3.625183 33.84639 -0.199615
2010-11-29 12:40:24 51°31.593 2°53.296 8.8803 3.60536 33.734907 -0.199615
2010-11-29 12:41:24 51°31.709 2°53.558 8.8383 3.588596 33.644719 -0.164791
2010-11-29 12:42:24 51°31.826 2°53.82 8.8335 3.584906 33.618746 -0.199615
2010-11-29 12:43:24 51°31.942 2°54.083 8.8228 3.584905 33.604681 -0.199615
2010-11-29 12:44:24 51°32.059 2°54.347 8.7928 3.578896 33.565443 -0.199615
2010-11-29 12:45:24 51°32.173 2°54.607 8.7581 3.574889 33.538483 -0.164791
2010-11-29 12:46:24 51°32.286 2°54.872 8.6974 3.564557 33.485267 -0.199615
2010-11-29 12:47:24 51°32.401 2°55.138 8.9969 3.558758 33.455907 -0.199615
2010-11-29 12:48:24 51°32.504 2°55.385 8.6968 3.596608 33.604891 -0.164791
2010-11-29 12:49:24 51°32.571 2°55.547 8.6553 3.554119 33.433954 -0.199615
2010-11-29 12:50:24 51°32.619 2°55.559 8.6571 3.548426 33.399385 -0.199615
2010-11-29 12:51:24 51°32.631 2°55.519 8.8275 3.545263 33.376435 -0.199615
2010-11-29 12:52:24 51°32.632 2°55.486 8.8155 3.566981 33.475479 -0.199615
2010-11-29 12:53:24 51°32.628 2°55.456 8.9668 3.574362 33.512707 -0.199615
2010-11-29 12:54:24 51°32.618 2°55.429 8.9234 3.59471 33.586724 -0.199615
2010-11-29 12:55:24 51°32.605 2°55.403 8.8026 3.584905 33.559443 -0.199615
2010-11-29 12:56:24 51°32.589 2°55.377 8.8206 3.570144 33.49055 -0.199615
2010-11-29 12:57:24 51°32.57 2°55.351 8.9174 3.576365 33.510214 -0.199615
2010-11-29 12:58:24 51°32.547 2°55.325 9.0077 3.588384 33.564511 -0.234439
2010-11-29 12:59:24 51°32.564 2°55.292 8.712 3.595237 33.601537 -0.199615
2010-11-29 13:00:24 51°32.602 2°55.326 8.9529 3.56403 33.470397 -0.164791
2010-11-29 13:01:24 51°32.654 2°55.384 8.7087 3.581953 33.54506 -0.164791
2010-11-29 13:02:24 51°32.694 2°55.407 8.7871 3.555701 33.440341 -0.199615
2010-11-29 13:03:24 51°32.715 2°55.429 8.8824 3.564346 33.47214 -0.199615
2010-11-29 13:04:24 51°32.715 2°55.464 9.0518 3.584378 33.546948 -0.164791
2010-11-29 13:05:24 51°32.705 2°55.495 8.878 3.609155 33.655852 -0.234439
2010-11-29 13:06:24 51°32.685 2°55.523 8.9372 3.589228 33.588861 -0.199615
2010-11-29 13:07:24 51°32.662 2°55.543 9.0152 3.587857 33.570702 -0.199615
2010-11-29 13:08:24 51°32.645 2°55.542 9.3531 3.615692 33.673912 -0.199615
2010-11-29 13:09:24 51°32.623 2°55.536 9.1302 3.653756 33.859465 -0.164791
2010-11-29 13:10:24 51°32.606 2°55.521 8.7168 3.603462 33.662096 -0.199615
2010-11-29 13:11:24 51°32.588 2°55.498 8.7994 3.557809 33.438186 -0.199615
2010-11-29 13:12:24 51°32.57 2°55.47 9.2495 3.576048 33.500691 -0.164791
2010-11-29 13:13:24 51°32.552 2°55.438 9.3341 3.634987 33.764173 -0.199615
2010-11-29 13:14:24 51°32.529 2°55.403 9.3273 3.654178 33.856062 -0.164791
2010-11-29 13:15:24 51°32.508 2°55.364 9.4084 3.648906 33.841218 -0.164791
2010-11-29 13:16:24 51°32.487 2°55.321 9.2195 3.664827 33.904588 -0.164791
2010-11-29 13:17:24 51°32.463 2°55.277 9.4757 3.637729 33.798721 -0.164791
2010-11-29 13:18:24 51°32.435 2°55.234 9.4518 3.668096 33.912682 -0.199615
2010-11-29 13:19:24 51°32.414 2°55.199 9.2332 3.658923 33.890253 -0.164791
2010-11-29 13:20:24 51°32.432 2°55.217 9.1321 3.641314 33.801617 -0.164791
2010-11-29 13:21:24 51°32.487 2°55.287 8.9566 3.621596 33.716441 -0.164791
2010-11-29 13:22:24 51°32.548 2°55.395 9.0139 3.595659 33.614485 -0.164791
2010-11-29 13:23:24 51°32.628 2°55.481 9.2319 3.605148 33.634487 -0.164791
2010-11-29 13:24:24 51°32.695 2°55.538 9.1432 3.640997 33.792145 -0.164791
2010-11-29 13:25:24 51°32.72 2°55.52 9.1359 3.631402 33.74728 -0.199615
2010-11-29 13:26:24 51°32.728 2°55.49 8.8428 3.615587 33.696903 -0.199615
2010-11-29 13:27:24 51°32.725 2°55.462 8.9933 3.580477 33.547605 -0.164791
2010-11-29 13:28:24 51°32.712 2°55.434 9 3.596924 33.605844 -0.199615
2010-11-29 13:29:24 51°32.694 2°55.405 9.0284 3.60072 33.628165 -0.199615
2010-11-29 13:30:24 51°32.674 2°55.375 9.0331 3.605675 33.650066 -0.199615
2010-11-29 13:31:24 51°32.647 2°55.343 9.1773 3.603567 33.642951 -0.164791
2010-11-29 13:32:24 51°32.62 2°55.313 9.183 3.633933 33.756377 -0.164791
2010-11-29 13:33:24 51°32.59 2°55.284 9.256 3.633933 33.767238 -0.164791
2010-11-29 13:34:24 51°32.562 2°55.255 9.1418 3.639732 33.796915 -0.164791
2010-11-29 13:35:24 51°32.534 2°55.23 9.2156 3.617168 33.706302 -0.199615
2010-11-29 13:36:24 51°32.527 2°55.195 8.8967 3.631191 33.763727 -0.164791
2010-11-29 13:37:24 51°32.553 2°55.202 8.9037 3.59102 33.601281 -0.199615
2010-11-29 13:38:25 51°32.667 2°55.306 9.081 3.595237 33.610878 -0.164791
2010-11-29 13:39:24 51°32.732 2°55.54 9.0427 3.614426 33.669342 -0.199615
2010-11-29 13:40:24 51°32.683 2°55.669 9.0785 3.598401 33.627411 -0.199615
2010-11-29 13:41:24 51°32.606 2°55.66 8.7414 3.59587 33.643957 -0.199615
2010-11-29 13:42:24 51°32.568 2°55.511 8.6978 3.566876 33.482176 -0.199615
2010-11-29 13:43:24 51°32.583 2°55.364 9.2329 3.563819 33.457279 -0.164791
2010-11-29 13:44:24 51°32.598 2°55.202 9.1796 3.617274 33.704286 -0.164791
2010-11-29 13:45:24 51°32.585 2°55.08 8.9261 3.609155 33.666736 -0.164791
2010-11-29 13:46:24 51°32.558 2°54.992 8.9157 3.587435 33.581112 -0.199615
2010-11-29 13:47:24 51°32.529 2°54.922 9.0716 3.60072 33.614944 -0.199615
2010-11-29 13:48:24 51°32.499 2°54.865 9.2056 3.625814 33.736035 -0.164791
2010-11-29 13:49:24 51°32.461 2°54.782 9.3159 3.637729 33.785524 -0.164791
2010-11-29 13:50:24 51°32.492 2°54.636 9.0986 3.650909 33.850258 -0.164791
2010-11-29 13:51:24 51°32.553 2°54.662 9.0284 3.622229 33.744764 -0.199615
2010-11-29 13:52:24 51°32.606 2°54.803 9.0156 3.616746 33.70193 -0.164791
2010-11-29 13:53:24 51°32.687 2°54.997 9.0959 3.610842 33.678796 -0.199615
2010-11-29 13:54:24 51°32.739 2°55.228 9.2914 3.617379 33.694499 -0.164791
2010-11-29 13:55:24 51°32.756 2°55.45 9.1566 3.640892 33.813558 -0.164791
2010-11-29 13:56:24 51°32.716 2°55.575 9.0276 3.624127 33.737212 -0.129967
2010-11-29 13:57:24 51°32.653 2°55.585 9.1267 3.604199 33.649521 -0.199615
2010-11-29 13:58:24 51°32.604 2°55.555 9.2813 3.627501 33.749615 -0.164791
2010-11-29 13:59:24 51°32.564 2°55.524 9.1715 3.644372 33.833205 -0.199615
2010-11-29 14:00:24 51°32.527 2°55.493 9.0977 3.626236 33.753611 -0.164791
2010-11-29 14:01:24 51°32.494 2°55.464 9.0617 3.614954 33.691121 -0.199615
2010-11-29 14:02:24 51°32.455 2°55.436 9.137 3.611896 33.676514 -0.164791
2010-11-29 14:03:24 51°32.415 2°55.423 9.0722 3.620753 33.710035 -0.199615
2010-11-29 14:04:24 51°32.38 2°55.423 8.9886 3.609998 33.675488 -0.164791
2010-11-29 14:05:24 51°32.358 2°55.442 8.9026 3.59703 33.619392 -0.199615
2010-11-29 14:06:24 51°32.357 2°55.451 8.8951 3.585854 33.563869 -0.164791
2010-11-29 14:07:24 51°32.374 2°55.44 8.9747 3.586381 33.563127 -0.234439
2010-11-29 14:08:24 51°32.413 2°55.437 8.9434 3.595975 33.606875 -0.164791
2010-11-29 14:09:24 51°32.453 2°55.465 8.92 3.590071 33.586732 -0.199615
2010-11-29 14:10:24 51°32.501 2°55.49 8.9845 3.591864 33.589805 -0.164791
2010-11-29 14:11:24 51°32.539 2°55.533 9.0133 3.598928 33.624327 -0.199615
2010-11-29 14:12:24 51°32.563 2°55.538 8.9819 3.603145 33.643239 -0.199615
2010-11-29 14:13:24 51°32.575 2°55.524 8.9633 3.59819 33.631449 -0.199615
2010-11-29 14:14:24 51°32.585 2°55.512 9.0131 3.597452 33.625334 -0.199615
2010-11-29 14:15:24 51°32.595 2°55.49 9.1949 3.606941 33.663201 -0.199615
2010-11-29 14:16:24 51°32.631 2°55.454 9.3558 3.637307 33.806789 -0.199615
2010-11-29 14:17:24 51°32.649 2°55.396 9.243 3.660926 33.922551 -0.199615
2010-11-29 14:18:24 51°32.651 2°55.333 9.1959 3.638362 33.826247 -0.164791
2010-11-29 14:19:24 51°32.648 2°55.276 9.1645 3.634882 33.791029 -0.164791
2010-11-29 14:20:24 51°32.639 2°55.233 9.1182 3.627396 33.758626 -0.164791
2010-11-29 14:21:24 51°32.626 2°55.197 9.0757 3.621175 33.730725 -0.164791
2010-11-29 14:22:24 51°32.609 2°55.163 9.1627 3.614111 33.697926 -0.199615
2010-11-29 14:23:24 51°32.589 2°55.132 9.1838 3.630243 33.774108 -0.199615
2010-11-29 14:24:24 51°32.566 2°55.102 9.2045 3.632351 33.784275 -0.164791
2010-11-29 14:25:24 51°32.548 2°55.063 9.2246 3.635515 33.795242 -0.164791
2010-11-29 14:26:24 51°32.529 2°55.024 9.2224 3.638678 33.809309 -0.234439
2010-11-29 14:27:24 51°32.51 2°54.986 9.1223 3.636991 33.799633 -0.199615
2010-11-29 14:28:24 51°32.535 2°54.944 9.1928 3.623811 33.744041 -0.164791
2010-11-29 14:29:24 51°32.575 2°55.024 9.2498 3.638572 33.805888 -0.164791
2010-11-29 14:30:24 51°32.563 2°55.174 9.1631 3.644793 33.834457 -0.129967
2010-11-29 14:31:24 51°32.42 2°55.187 9.098 3.626025 33.75687 -0.164791
2010-11-29 14:32:24 51°32.216 2°55.145 9.2374 3.622124 33.736671 -0.129967
2010-11-29 14:33:24 51°31.98 2°55.095 9.2809 3.648062 33.842597 -0.164791
2010-11-29 14:34:24 51°31.746 2°55.037 9.1682 3.648378 33.853626 -0.164791
2010-11-29 14:35:24 51°31.506 2°54.989 9.2792 3.626974 33.746488 -0.164791
2010-11-29 14:36:24 51°31.268 2°54.935 9.443 3.650276 33.835202 -0.164791
2010-11-29 14:37:24 51°31.028 2°54.894 9.3324 3.669572 33.926325 -0.164791
2010-11-29 14:38:24 51°30.791 2°54.838 9.3763 3.653439 33.850776 -0.164791
2010-11-29 14:39:24 51°30.558 2°54.777 9.2587 3.654283 33.859475 -0.164791
2010-11-29 14:40:24 51°30.333 2°54.714 9.0308 3.632667 33.758036 -0.164791
2010-11-29 14:41:24 51°30.105 2°54.649 8.8736 3.598189 33.591 -0.129967
2010-11-29 14:42:24 51°29.877 2°54.596 8.7716 3.573518 33.474333 -0.164791
2010-11-29 14:43:24 51°29.645 2°54.532 8.7833 3.562342 33.420851 -0.164791
2010-11-29 14:44:24 51°29.414 2°54.475 8.7492 3.56171 33.415809 -0.164791
2010-11-29 14:45:24 51°29.183 2°54.425 8.8123 3.557176 33.391848 -0.199615
2010-11-29 14:46:24 51°28.952 2°54.376 8.7817 3.562764 33.405031 -0.164791
2010-11-29 14:47:24 51°28.724 2°54.34 8.6953 3.560023 33.428568 -0.129967
2010-11-29 14:48:24 51°28.493 2°54.288 8.7172 3.551483 33.39859 -0.164791
2010-11-29 14:49:24 51°28.263 2°54.236 8.8265 3.556333 33.390825 -0.164791
2010-11-29 14:50:24 51°28.032 2°54.179 8.8092 3.558968 33.363139 -0.199615
2010-11-29 14:51:24 51°27.798 2°54.126 8.7483 3.554434 33.336834 -0.199615
2010-11-29 14:52:24 51°27.57 2°54.077 8.5239 3.546844 33.306549 -0.199615
2010-11-29 14:53:24 51°27.344 2°54.027 8.4438 3.50636 33.105144 -0.199615
2010-11-29 14:54:24 51°27.118 2°54 8.2075 3.485909 32.981328 -0.199615
2010-11-29 14:55:24 51°26.891 2°54.002 8.199 3.442582 32.701291 -0.199615
2010-11-29 14:56:24 51°26.665 2°53.972 8.1429 3.435941 32.638993 -0.234439
2010-11-29 14:57:24 51°26.437 2°53.946 8.1076 3.422554 32.554947 -0.199615
2010-11-29 14:58:24 51°26.212 2°53.933 8.1503 3.418126 32.517472 -0.199615
2010-11-29 14:59:24 51°25.983 2°53.926 8.1823 3.422448 32.539927 -0.234439
2010-11-29 15:00:24 51°25.756 2°53.9 8.1589 3.423502 32.541012 -0.234439
2010-11-29 15:01:24 51°25.525 2°53.847 8.1818 3.420445 32.515704 -0.234439
2010-11-29 15:02:24 51°25.295 2°53.806 8.308 3.428245 32.548598 -0.234439
2010-11-29 15:03:24 51°25.064 2°53.758 8.2959 3.44743 32.644945 -0.234439
2010-11-29 15:04:24 51°24.833 2°53.706 8.1573 3.436256 32.580565 -0.234439
2010-11-29 15:05:24 51°24.604 2°53.654 8.0402 3.408639 32.431183 -0.199615
2010-11-29 15:06:24 51°24.372 2°53.601 8.0305 3.396412 32.360547 -0.234439
2010-11-29 15:07:24 51°24.146 2°53.548 7.9617 3.39188 32.339579 -0.199615
2010-11-29 15:08:24 51°23.919 2°53.484 8.0073 3.374488 32.225538 -0.199615
2010-11-29 15:09:24 51°23.694 2°53.412 7.9588 3.379547 32.224501 -0.234439
2010-11-29 15:10:24 51°23.472 2°53.334 7.8974 3.359309 32.088551 -0.234439
2010-11-29 15:11:24 51°23.249 2°53.246 7.8812 3.347083 31.9904 -0.234439
2010-11-29 15:12:24 51°23.022 2°53.166 8.0287 3.349085 31.99555 -0.234439
2010-11-29 15:13:24 51°22.797 2°53.094 8.1436 3.375752 32.158298 -0.234439
2010-11-29 15:14:24 51°22.574 2°53.012 8.1311 3.399889 32.307347 -0.234439
2010-11-29 15:15:24 51°22.352 2°52.934 7.9098 3.366581 32.065225 -0.234439
2010-11-29 15:16:24 51°22.132 2°52.859 7.884 3.331483 31.795448 -0.199615
2010-11-29 15:17:24 51°21.912 2°52.786 7.9816 3.32948 31.782614 -0.234439
2010-11-29 15:18:24 51°21.69 2°52.728 7.8603 3.334961 31.818567 -0.199615
2010-11-29 15:19:24 51°21.466 2°52.709 7.8387 3.318098 31.720573 -0.199615
2010-11-29 15:20:24 51°21.24 2°52.692 7.8452 3.322103 31.756936 -0.199615
2010-11-29 15:21:24 51°21.015 2°52.673 7.6317 3.321366 31.771948 -0.199615
2010-11-29 15:22:24 51°20.795 2°52.652 7.4429 3.288695 31.612925 -0.164791
2010-11-29 15:23:24 51°20.571 2°52.632 7.3372 3.246014 31.33637 -0.129967
2010-11-29 15:24:24 51°20.35 2°52.605 7.277 3.215137 31.094746 -0.129967
2010-11-29 15:25:24 51°20.13 2°52.583 7.2838 3.200279 30.947743 -0.129967
2010-11-29 15:26:24 51°19.907 2°52.566 7.2969 3.195537 30.900747 -0.095143
2010-11-29 15:27:24 51°19.684 2°52.55 7.3316 3.191532 30.853377 -0.095143
2010-11-29 15:28:24 51°19.462 2°52.525 7.3125 3.195537 30.880436 -0.129967
2010-11-29 15:29:24 51°19.237 2°52.508 7.3588 3.192797 30.863902 -0.129967
2010-11-29 15:30:24 51°19.011 2°52.495 7.4175 3.200384 30.917996 -0.129967
2010-11-29 15:31:24 51°18.786 2°52.496 7.5566 3.233789 31.174663 -0.129967
2010-11-29 15:32:24 51°18.559 2°52.491 7.6017 3.259923 31.353525 -0.129967
2010-11-29 15:33:24 51°18.335 2°52.477 7.6329 3.270673 31.442259 -0.164791
2010-11-29 15:34:24 51°18.111 2°52.469 7.6134 3.281739 31.522866 -0.164791
2010-11-29 15:35:24 51°17.887 2°52.463 7.5075 3.277102 31.50618 -0.129967
2010-11-29 15:36:24 51°17.663 2°52.473 7.4134 3.252336 31.344651 -0.129967
2010-11-29 15:37:24 51°17.44 2°52.511 7.4207 3.240112 31.277068 -0.095143
2010-11-29 15:38:24 51°17.224 2°52.589 7.4141 3.244854 31.317133 -0.129967
2010-11-29 15:39:24 51°17.016 2°52.702 7.3072 3.245382 31.350157 -0.060319
2010-11-29 15:40:24 51°16.816 2°52.844 7.1223 3.239165 31.391175 -0.060319
2010-11-29 15:41:24 51°16.614 2°52.987 7.0344 3.225783 31.38995 -0.025495
2010-11-29 15:42:24 51°16.412 2°53.13 6.9283 3.218618 31.374248 -0.025495
2010-11-29 15:43:24 51°16.215 2°53.272 6.8941 3.20376 31.327788 -0.060319
2010-11-29 15:44:24 51°16.018 2°53.407 6.8838 3.202285 31.343501 -0.129967
2010-11-29 15:45:24 51°15.825 2°53.55 6.8685 3.194487 31.237422 -0.095143
2010-11-29 15:46:24 51°15.645 2°53.737 6.8402 3.178049 31.086365 -0.060319
2010-11-29 15:47:24 51°15.481 2°53.955 6.8899 3.184898 31.176695 -0.129967
2010-11-29 15:48:24 51°15.297 2°54.127 6.8676 3.201864 31.356734 -0.164791
2010-11-29 15:49:24 51°15.116 2°54.313 6.8842 3.212297 31.463667 -0.095143
2010-11-29 15:50:24 51°14.942 2°54.513 6.8911 2.319406 21.105962 -0.129967
2010-11-29 15:51:24 51°14.78 2°54.739 6.8295 0.241356 1.588995 -0.129967
2010-11-29 15:52:24 51°14.602 2°54.935 7.3275 0.078378 0.490458 -0.408559
2010-11-29 15:53:24 51°14.419 2°55.115 7.6015 0.063499 0.396269 -0.338911
2010-11-29 15:54:24 51°14.252 2°55.293 11.4656 0.060274 0.379293 -0.373735
2010-11-29 15:55:27 51°14.112 2°55.425 12.9503 0.058713 0.373312 -0.373735
2010-11-29 15:56:25 51°13.989 2°55.516 13.357 0.057257 0.36729 -0.338911
2010-11-29 15:57:24 51°13.87 2°55.599 13.3101 0.057361 0.364186 -0.373735
2010-11-29 15:58:18 51°13.777 2°55.687 12.9878 0.057257 0.364988 -0.338911
2010-11-29 15:59:25 51°13.777 2°55.687 12.9622 0.056945 0.365073 -0.513031
2010-11-29 16:00:24 51°13.667 2°55.924 13.0427 0.057777 0.370789 -0.513031
2010-11-29 16:01:24 51°13.66 2°55.96 13.0552 0.058817 0.377606 -0.513031
2010-11-29 16:02:25 51°13.661 2°55.962 13.0596 0.060066 0.385896 -0.513031
2010-11-29 16:03:28 51°13.661 2°55.961 13.0897 0.061418 0.395028 -0.513031
2010-11-29 16:04:28 51°13.662 2°55.961 13.0901 0.063083 0.406294 -0.513031